KPOE/POE METAR and TAF weather

Enter ICAO airport designator
Station Type Date Time Source
KPOE METAR 2021/01/16 02:58 UTC NOAA

KPOE 160258Z AUTO 25005KT 10SM CLR 06/M07 A3003 RMK AO2 SLP172 T00631073 52021


Station Type Date Time Source
KPOE Decoded METAR 2021/01/16 02:58 UTC NOAA

Fort Polk, Polk AAF Ft Polk, LA, United States (KPOE) 31-03N 093-11-38W
Jan 15, 2021 - 09:58 PM EST / 2021.01.16 0258 UTC
Wind: from the WSW (250 degrees) at 6 MPH (5 KT):0
Visibility: 10 mile(s):0
Sky conditions: clear
Temperature: 43.3 F (6.3 C)
Dew Point: 18.9 F (-7.3 C)
Relative Humidity: 37%
Pressure (altimeter): 30.03 in. Hg (1016 hPa)
Pressure tendency: 0.06 inches (2.1 hPa) higher than three hours ago
ob: KPOE 160258Z AUTO 25005KT 10SM CLR 06/M07 A3003 RMK AO2 SLP172 T00631073 52021
cycle: 3

Station Type Date Time Source
KPOE TAF 2021/01/16 00:06 UTC NOAA

TAF KPOE 160000Z 1600/1706 29012G18KT 9999 SKC 510208 QNH2993INS
BECMG 1610/1611 VRB06KT 9999 SKC QNH3002INS TX12/1621Z TN02/1613Z

Example: see airport list